Time;durP1;ratioP1;P1;durP2;ratioP2;P2;SDS_P1;SDS_P2;PMS_P1;PMS_P2;Temp;Humidity;BMP_temperature;BMP_pressure;BME280_temperature;BME280_humidity;BME280_pressure;Samples;Min_cycle;Max_cycle;Signal;HPM_P1;HPM_P2
2023/07/29 00:00:55;;;;;;;4.53;2.42;;;;;;;;;;5023403;28;20026;-69
2023/07/29 00:03:22;;;;;;;7.82;2.50;;;;;;;;;;5022957;28;20017;-69
2023/07/29 00:05:48;;;;;;;5.05;2.50;;;;;;;;;;5024383;28;20026;-69
2023/07/29 00:08:14;;;;;;;9.32;2.85;;;;;;;;;;5022002;28;20029;-69
2023/07/29 00:10:40;;;;;;;4.88;2.40;;;;;;;;;;5023062;28;20457;-69
2023/07/29 00:13:07;;;;;;;4.90;2.35;;;;;;;;;;5025911;28;20029;-69
2023/07/29 00:15:33;;;;;;;7.93;2.65;;;;;;;;;;5024835;28;20041;-69
2023/07/29 00:18:00;;;;;;;9.38;2.47;;;;;;;;;;5025380;28;20048;-69
2023/07/29 00:20:26;;;;;;;7.60;3.47;;;;;;;;;;5020030;28;20030;-68
2023/07/29 00:22:55;;;;;;;5.38;2.38;;;;;;;;;;5021066;28;20402;-69
2023/07/29 00:25:21;;;;;;;5.00;2.28;;;;;;;;;;5020964;28;20046;-70
2023/07/29 00:27:48;;;;;;;4.38;2.55;;;;;;;;;;5022554;28;20029;-70
2023/07/29 00:30:14;;;;;;;10.80;2.55;;;;;;;;;;5019436;28;20120;-70
2023/07/29 00:32:40;;;;;;;8.10;2.70;;;;;;;;;;5024561;28;20112;-70
2023/07/29 00:35:06;;;;;;;7.00;3.00;;;;;;;;;;5006250;28;20482;-70
2023/07/29 00:37:32;;;;;;;5.18;2.80;;;;;;;;;;5022892;28;20026;-70
2023/07/29 00:39:59;;;;;;;7.80;2.75;;;;;;;;;;5020811;28;20034;-74
2023/07/29 00:42:25;;;;;;;10.02;2.92;;;;;;;;;;5021499;28;20021;-70
2023/07/29 00:44:51;;;;;;;10.63;2.83;;;;;;;;;;5023721;28;20054;-70
2023/07/29 00:47:18;;;;;;;7.57;2.78;;;;;;;;;;5006169;28;20045;-68
2023/07/29 00:49:44;;;;;;;8.82;3.40;;;;;;;;;;5024884;28;20072;-68
2023/07/29 00:52:12;;;;;;;6.50;3.00;;;;;;;;;;5022407;28;20025;-70
2023/07/29 00:54:39;;;;;;;10.07;3.15;;;;;;;;;;5007017;28;20033;-70
2023/07/29 00:57:06;;;;;;;9.68;3.47;;;;;;;;;;5024138;28;20116;-69
2023/07/29 00:59:32;;;;;;;9.20;3.53;;;;;;;;;;5009999;28;20158;-69
2023/07/29 01:01:58;;;;;;;10.40;3.90;;;;;;;;;;5005442;28;20132;-69
2023/07/29 01:04:24;;;;;;;10.05;3.50;;;;;;;;;;5029133;28;20037;-70
2023/07/29 01:07:08;;;;;;;10.00;4.00;;;;;;;;;;5024028;28;20030;-69
2023/07/29 01:09:37;;;;;;;8.50;3.97;;;;;;;;;;5028350;28;20033;-69
2023/07/29 01:12:15;;;;;;;11.52;4.35;;;;;;;;;;5007582;28;20106;-70
2023/07/29 01:14:47;;;;;;;15.73;5.28;;;;;;;;;;5026468;28;20075;-69
2023/07/29 01:17:21;;;;;;;13.57;4.68;;;;;;;;;;5023748;28;20108;-68
2023/07/29 01:20:06;;;;;;;15.52;5.18;;;;;;;;;;5026453;28;20083;-69
2023/07/29 01:22:37;;;;;;;12.35;4.95;;;;;;;;;;5025725;28;20152;-69
2023/07/29 01:25:04;;;;;;;10.07;5.57;;;;;;;;;;5011162;28;20037;-69
2023/07/29 01:27:30;;;;;;;10.88;5.40;;;;;;;;;;5010697;28;20409;-69
2023/07/29 01:29:57;;;;;;;14.13;5.85;;;;;;;;;;5025691;28;20036;-69
2023/07/29 01:32:29;;;;;;;12.23;6.18;;;;;;;;;;5008660;28;20056;-69
2023/07/29 01:35:14;;;;;;;12.20;6.03;;;;;;;;;;5025043;28;20048;-68
2023/07/29 01:37:42;;;;;;;15.23;5.85;;;;;;;;;;5026918;28;20112;-68
2023/07/29 01:40:09;;;;;;;12.48;6.35;;;;;;;;;;5025457;28;20491;-69
2023/07/29 01:42:35;;;;;;;13.02;6.25;;;;;;;;;;5023356;28;20024;-69
2023/07/29 01:45:02;;;;;;;20.50;7.28;;;;;;;;;;5026350;28;20144;-69
2023/07/29 01:47:28;;;;;;;19.13;7.22;;;;;;;;;;5009705;28;20118;-68
2023/07/29 01:49:55;;;;;;;16.75;7.53;;;;;;;;;;5027939;28;20102;-70
2023/07/29 01:52:21;;;;;;;19.35;8.15;;;;;;;;;;5005553;28;20038;-69
2023/07/29 01:54:47;;;;;;;19.88;7.75;;;;;;;;;;5027643;28;20033;-70
2023/07/29 01:57:13;;;;;;;14.88;7.40;;;;;;;;;;5026527;28;20108;-69
2023/07/29 01:59:40;;;;;;;21.92;8.73;;;;;;;;;;5009224;28;20052;-68
2023/07/29 02:02:06;;;;;;;16.92;8.38;;;;;;;;;;5024292;28;20079;-69
2023/07/29 02:04:32;;;;;;;23.58;10.05;;;;;;;;;;5022802;28;20029;-70
2023/07/29 02:06:58;;;;;;;22.77;10.32;;;;;;;;;;5025334;28;20029;-70
2023/07/29 02:09:25;;;;;;;16.58;9.20;;;;;;;;;;5026041;28;20033;-70
2023/07/29 02:11:51;;;;;;;21.38;9.63;;;;;;;;;;5002410;28;20199;-70
2023/07/29 02:14:18;;;;;;;22.20;9.52;;;;;;;;;;5006611;28;20056;-70
2023/07/29 02:16:44;;;;;;;21.70;9.57;;;;;;;;;;5022810;28;20056;-70
2023/07/29 02:19:10;;;;;;;24.52;8.80;;;;;;;;;;5009198;28;20490;-70
2023/07/29 02:21:36;;;;;;;16.88;8.70;;;;;;;;;;5004279;28;20533;-70
2023/07/29 02:24:02;;;;;;;18.80;8.65;;;;;;;;;;5005130;28;20140;-70
2023/07/29 02:26:29;;;;;;;18.88;8.05;;;;;;;;;;5009372;28;20082;-69
2023/07/29 02:28:55;;;;;;;24.58;9.23;;;;;;;;;;5023653;28;20112;-69
2023/07/29 02:31:22;;;;;;;16.70;8.15;;;;;;;;;;5006864;28;20144;-69
2023/07/29 02:33:49;;;;;;;19.58;8.57;;;;;;;;;;5006652;28;20160;-69
2023/07/29 02:36:16;;;;;;;18.08;9.32;;;;;;;;;;5025749;28;20044;-69
2023/07/29 02:38:42;;;;;;;19.33;8.82;;;;;;;;;;5008787;28;20060;-70
2023/07/29 02:41:11;;;;;;;19.10;8.65;;;;;;;;;;4986684;28;20462;-70
2023/07/29 02:43:40;;;;;;;;;;;;;;;;;;5005600;28;20387;-69
2023/07/29 02:46:07;;;;;;;18.85;8.50;;;;;;;;;;5011130;28;19932;-69
2023/07/29 02:48:33;;;;;;;23.42;9.07;;;;;;;;;;5009777;28;20034;-69
2023/07/29 02:50:59;;;;;;;21.50;8.25;;;;;;;;;;5006893;28;21286;-69
2023/07/29 02:53:26;;;;;;;22.48;8.43;;;;;;;;;;5024387;28;20034;-70
2023/07/29 02:55:52;;;;;;;18.27;8.07;;;;;;;;;;5024094;28;20021;-70
2023/07/29 02:58:19;;;;;;;19.08;8.30;;;;;;;;;;5007860;28;20586;-70
2023/07/29 03:00:47;;;;;;;19.52;8.73;;;;;;;;;;5007748;28;20037;-69
2023/07/29 03:03:13;;;;;;;20.48;7.63;;;;;;;;;;5007331;28;20022;-69
2023/07/29 03:05:40;;;;;;;13.88;6.65;;;;;;;;;;5020789;28;20061;-70
2023/07/29 03:08:06;;;;;;;14.85;6.75;;;;;;;;;;5008302;28;20038;-68
2023/07/29 03:10:32;;;;;;;17.95;6.93;;;;;;;;;;5024809;28;20029;-69
2023/07/29 03:12:58;;;;;;;16.67;6.43;;;;;;;;;;5023830;28;20071;-69
2023/07/29 03:15:24;;;;;;;14.15;6.65;;;;;;;;;;5026165;28;20060;-69
2023/07/29 03:17:51;;;;;;;14.02;6.20;;;;;;;;;;5025135;28;20029;-69
2023/07/29 03:20:17;;;;;;;14.00;6.10;;;;;;;;;;5019775;28;20053;-69
2023/07/29 03:22:44;;;;;;;12.77;5.88;;;;;;;;;;4983243;28;20037;-70
2023/07/29 03:25:10;;;;;;;11.93;5.93;;;;;;;;;;4998011;28;20037;-70
2023/07/29 03:27:36;;;;;;;9.73;5.00;;;;;;;;;;5001167;28;20026;-70
2023/07/29 03:30:05;;;;;;;10.98;5.57;;;;;;;;;;5007045;28;20055;-71
2023/07/29 03:32:32;;;;;;;12.52;5.30;;;;;;;;;;5007809;28;20045;-69
2023/07/29 03:34:58;;;;;;;10.88;5.80;;;;;;;;;;5025426;28;20119;-69
2023/07/29 03:37:24;;;;;;;11.98;5.55;;;;;;;;;;5022728;28;20060;-69
2023/07/29 03:39:52;;;;;;;11.00;6.07;;;;;;;;;;5017900;28;20064;-69
2023/07/29 03:42:18;;;;;;;12.77;5.38;;;;;;;;;;5022093;28;20575;-70
2023/07/29 03:44:45;;;;;;;9.50;5.45;;;;;;;;;;5024111;28;20085;-69
2023/07/29 03:47:12;;;;;;;11.88;5.25;;;;;;;;;;5025988;28;20398;-70
2023/07/29 03:49:40;;;;;;;11.27;5.70;;;;;;;;;;5021463;28;20026;-69
2023/07/29 03:52:07;;;;;;;10.75;5.10;;;;;;;;;;5006825;28;20089;-70
2023/07/29 03:54:33;;;;;;;11.43;5.18;;;;;;;;;;5008521;28;20036;-69
2023/07/29 03:56:59;;;;;;;9.98;4.93;;;;;;;;;;5022856;28;20060;-70
2023/07/29 03:59:25;;;;;;;11.77;5.25;;;;;;;;;;5024359;28;20092;-69
2023/07/29 04:01:51;;;;;;;9.05;5.32;;;;;;;;;;5007818;28;20045;-69
2023/07/29 04:04:18;;;;;;;11.35;5.70;;;;;;;;;;5024964;28;20033;-69
2023/07/29 04:06:44;;;;;;;13.43;4.95;;;;;;;;;;5008173;28;20044;-69
2023/07/29 04:09:10;;;;;;;9.23;5.03;;;;;;;;;;5007302;28;20038;-69
2023/07/29 04:11:36;;;;;;;11.85;5.25;;;;;;;;;;5006183;28;20439;-70
2023/07/29 04:14:03;;;;;;;10.00;4.90;;;;;;;;;;5005884;28;20033;-71
2023/07/29 04:16:29;;;;;;;10.48;4.60;;;;;;;;;;5022269;28;20056;-70
2023/07/29 04:18:55;;;;;;;8.43;4.68;;;;;;;;;;5021889;28;20032;-70
2023/07/29 04:21:21;;;;;;;15.63;5.07;;;;;;;;;;5004609;28;20036;-70
2023/07/29 04:23:48;;;;;;;13.57;5.13;;;;;;;;;;5025583;28;20033;-71
2023/07/29 04:26:14;;;;;;;8.02;5.05;;;;;;;;;;5001143;28;21272;-70
2023/07/29 04:28:40;;;;;;;12.73;5.50;;;;;;;;;;5025842;28;20026;-70
2023/07/29 04:31:06;;;;;;;9.73;4.93;;;;;;;;;;5022995;28;20116;-70
2023/07/29 04:33:32;;;;;;;12.70;5.15;;;;;;;;;;5010103;28;20088;-69
2023/07/29 04:35:58;;;;;;;8.00;4.80;;;;;;;;;;5026740;28;20105;-69
2023/07/29 04:38:28;;;;;;;17.00;5.60;;;;;;;;;;5027517;28;20152;-69
2023/07/29 04:40:54;;;;;;;8.52;5.25;;;;;;;;;;5007831;28;20030;-69
2023/07/29 04:43:20;;;;;;;11.35;5.32;;;;;;;;;;5026747;28;20065;-70
2023/07/29 04:45:46;;;;;;;8.80;5.20;;;;;;;;;;5008383;28;20046;-70
2023/07/29 04:48:12;;;;;;;11.15;5.38;;;;;;;;;;5009392;28;20120;-70
2023/07/29 04:50:39;;;;;;;9.65;5.40;;;;;;;;;;5024069;28;20057;-70
2023/07/29 04:53:06;;;;;;;10.63;5.20;;;;;;;;;;5005797;28;20034;-70
2023/07/29 04:55:32;;;;;;;10.77;5.10;;;;;;;;;;5022128;28;20029;-71
2023/07/29 04:58:00;;;;;;;8.57;4.85;;;;;;;;;;5021157;28;20108;-68
2023/07/29 05:00:26;;;;;;;7.75;4.95;;;;;;;;;;5005108;28;20042;-69
2023/07/29 05:02:52;;;;;;;10.68;5.57;;;;;;;;;;5028160;28;20475;-69
2023/07/29 05:05:18;;;;;;;16.92;5.70;;;;;;;;;;5025140;28;20415;-70
2023/07/29 05:07:45;;;;;;;13.00;5.60;;;;;;;;;;5006712;28;21202;-69
2023/07/29 05:10:11;;;;;;;9.02;5.38;;;;;;;;;;5025967;28;20029;-70
2023/07/29 05:12:37;;;;;;;14.13;5.80;;;;;;;;;;5027142;28;20037;-70
2023/07/29 05:15:03;;;;;;;11.88;5.55;;;;;;;;;;5009699;28;20041;-69
2023/07/29 05:17:30;;;;;;;10.43;5.32;;;;;;;;;;5023839;28;20545;-70
2023/07/29 05:19:56;;;;;;;9.55;5.43;;;;;;;;;;5025675;28;20083;-69
2023/07/29 05:22:22;;;;;;;14.13;5.10;;;;;;;;;;5007247;28;20075;-69
2023/07/29 05:24:48;;;;;;;13.07;6.07;;;;;;;;;;5025482;28;20041;-70
2023/07/29 05:27:14;;;;;;;11.20;5.70;;;;;;;;;;5022983;28;20073;-70
2023/07/29 05:29:40;;;;;;;11.38;5.47;;;;;;;;;;5027859;28;20053;-69
2023/07/29 05:32:07;;;;;;;10.45;5.78;;;;;;;;;;5026656;28;20090;-69
2023/07/29 05:34:33;;;;;;;9.10;6.00;;;;;;;;;;5028012;28;20040;-69
2023/07/29 05:36:59;;;;;;;10.30;5.63;;;;;;;;;;5006891;28;20079;-69
2023/07/29 05:39:25;;;;;;;15.00;6.50;;;;;;;;;;5026444;28;20045;-69
2023/07/29 05:41:51;;;;;;;13.95;6.13;;;;;;;;;;5002182;28;20060;-68
2023/07/29 05:44:18;;;;;;;11.63;5.78;;;;;;;;;;5025086;28;20087;-69
2023/07/29 05:46:44;;;;;;;10.82;5.93;;;;;;;;;;5023185;28;20116;-68
2023/07/29 05:49:10;;;;;;;13.15;6.45;;;;;;;;;;5009300;28;20060;-69
2023/07/29 05:51:36;;;;;;;11.65;6.15;;;;;;;;;;5004512;28;20026;-68
2023/07/29 05:54:02;;;;;;;15.95;6.90;;;;;;;;;;5009137;28;20349;-69
2023/07/29 05:56:29;;;;;;;11.55;6.28;;;;;;;;;;5005819;28;20040;-68
2023/07/29 05:58:55;;;;;;;11.68;6.70;;;;;;;;;;5023302;28;20034;-69
2023/07/29 06:01:21;;;;;;;9.80;5.90;;;;;;;;;;5005217;28;20338;-68
2023/07/29 06:03:48;;;;;;;14.75;6.20;;;;;;;;;;5026763;28;20041;-69
2023/07/29 06:06:14;;;;;;;12.27;6.10;;;;;;;;;;5022093;28;20025;-70
2023/07/29 06:08:40;;;;;;;9.90;5.32;;;;;;;;;;5022502;28;20091;-69
2023/07/29 06:11:06;;;;;;;11.45;5.50;;;;;;;;;;5007288;28;20128;-69
2023/07/29 06:13:33;;;;;;;10.02;6.07;;;;;;;;;;5006713;28;20506;-69
2023/07/29 06:15:59;;;;;;;14.60;6.13;;;;;;;;;;5004383;28;20029;-70
2023/07/29 06:18:25;;;;;;;13.27;6.28;;;;;;;;;;5007923;28;20525;-70
2023/07/29 06:20:52;;;;;;;13.68;6.38;;;;;;;;;;5017391;28;20037;-69
2023/07/29 06:23:18;;;;;;;14.40;6.50;;;;;;;;;;5005454;28;20506;-69
2023/07/29 06:25:45;;;;;;;13.00;7.07;;;;;;;;;;5022843;28;20184;-69
2023/07/29 06:28:11;;;;;;;11.70;6.07;;;;;;;;;;5008393;28;20104;-69
2023/07/29 06:30:37;;;;;;;12.82;6.45;;;;;;;;;;5023453;28;20041;-69
2023/07/29 06:33:03;;;;;;;12.93;6.80;;;;;;;;;;5025485;28;20037;-69
2023/07/29 06:35:29;;;;;;;12.20;6.43;;;;;;;;;;5022837;28;20044;-69
2023/07/29 06:37:55;;;;;;;16.08;6.57;;;;;;;;;;5022454;28;20058;-69
2023/07/29 06:40:21;;;;;;;16.80;7.13;;;;;;;;;;5026513;28;20029;-70
2023/07/29 06:42:48;;;;;;;13.63;6.55;;;;;;;;;;5025706;28;20111;-70
2023/07/29 06:45:15;;;;;;;17.90;7.07;;;;;;;;;;5024420;28;20066;-69
2023/07/29 06:47:41;;;;;;;16.13;7.43;;;;;;;;;;5023770;28;20036;-69
2023/07/29 06:50:07;;;;;;;11.23;7.35;;;;;;;;;;5025043;28;20034;-69
2023/07/29 06:52:33;;;;;;;18.90;6.95;;;;;;;;;;5024821;28;20044;-70
2023/07/29 06:55:00;;;;;;;13.90;6.53;;;;;;;;;;5003364;28;20076;-69
2023/07/29 06:57:26;;;;;;;13.95;6.68;;;;;;;;;;5017619;28;20023;-69
2023/07/29 06:59:52;;;;;;;11.75;6.00;;;;;;;;;;5021601;28;20466;-69
2023/07/29 07:02:18;;;;;;;17.17;6.53;;;;;;;;;;5002778;28;20033;-76
2023/07/29 07:04:45;;;;;;;15.88;6.68;;;;;;;;;;5023925;28;20406;-69
2023/07/29 07:07:11;;;;;;;14.68;7.22;;;;;;;;;;5021273;28;20072;-69
2023/07/29 07:09:37;;;;;;;9.68;6.50;;;;;;;;;;5002868;28;20455;-68
2023/07/29 07:12:03;;;;;;;13.20;6.75;;;;;;;;;;5021720;28;20037;-69
2023/07/29 07:14:29;;;;;;;15.63;6.70;;;;;;;;;;5020285;28;20372;-69
2023/07/29 07:16:55;;;;;;;18.00;6.80;;;;;;;;;;5006479;28;20112;-71
2023/07/29 07:19:21;;;;;;;12.50;7.10;;;;;;;;;;5022885;28;20394;-69
2023/07/29 07:21:47;;;;;;;13.05;6.90;;;;;;;;;;5024014;28;20121;-70
2023/07/29 07:24:13;;;;;;;14.02;7.25;;;;;;;;;;5022409;28;20029;-69
2023/07/29 07:26:40;;;;;;;11.55;7.10;;;;;;;;;;5016531;28;20030;-70
2023/07/29 07:29:06;;;;;;;11.70;6.20;;;;;;;;;;5018096;28;20029;-72
2023/07/29 07:31:34;;;;;;;15.25;7.38;;;;;;;;;;5000366;28;20040;-68
2023/07/29 07:34:02;;;;;;;11.45;7.35;;;;;;;;;;5015491;28;20433;-68
2023/07/29 07:36:28;;;;;;;11.73;6.75;;;;;;;;;;5023857;28;20053;-69
2023/07/29 07:38:55;;;;;;;15.32;6.38;;;;;;;;;;5024707;28;20017;-68
2023/07/29 07:41:21;;;;;;;11.68;6.25;;;;;;;;;;5023487;28;20040;-68
2023/07/29 07:43:47;;;;;;;11.23;6.00;;;;;;;;;;5022395;28;20042;-69
2023/07/29 07:46:13;;;;;;;10.57;6.18;;;;;;;;;;4998377;28;20077;-69
2023/07/29 07:48:39;;;;;;;13.18;6.45;;;;;;;;;;5018815;28;20431;-69
2023/07/29 07:51:12;;;;;;;10.98;5.10;;;;;;;;;;5024298;28;20048;-68
2023/07/29 07:53:38;;;;;;;10.13;5.90;;;;;;;;;;5016496;28;20034;-69
2023/07/29 07:56:04;;;;;;;12.35;5.85;;;;;;;;;;5020511;28;20038;-68
2023/07/29 07:58:30;;;;;;;9.90;5.53;;;;;;;;;;5021912;28;20068;-67
2023/07/29 08:01:07;;;;;;;7.88;5.65;;;;;;;;;;5019640;28;20030;-68
2023/07/29 08:03:33;;;;;;;13.55;6.70;;;;;;;;;;5022810;28;20018;-68
2023/07/29 08:05:59;;;;;;;13.40;6.75;;;;;;;;;;5026561;28;20018;-69
2023/07/29 08:08:26;;;;;;;12.52;6.32;;;;;;;;;;5028489;28;20032;-69
2023/07/29 08:10:54;;;;;;;14.00;5.28;;;;;;;;;;5024357;28;20040;-69
2023/07/29 08:13:20;;;;;;;9.85;4.60;;;;;;;;;;5025982;28;20873;-69
2023/07/29 08:15:47;;;;;;;10.25;4.00;;;;;;;;;;5028057;28;20117;-70
2023/07/29 08:18:13;;;;;;;8.85;3.80;;;;;;;;;;5027399;28;20033;-68
2023/07/29 08:20:40;;;;;;;20.73;7.70;;;;;;;;;;5029004;28;20026;-70
2023/07/29 08:23:06;;;;;;;8.43;3.17;;;;;;;;;;5027765;28;20065;-69
2023/07/29 08:25:32;;;;;;;10.63;3.60;;;;;;;;;;5018875;28;20033;-70
2023/07/29 08:27:58;;;;;;;7.88;2.95;;;;;;;;;;5026209;28;20037;-69
2023/07/29 08:30:24;;;;;;;9.70;2.92;;;;;;;;;;5004346;28;20116;-69
2023/07/29 08:32:50;;;;;;;9.93;2.88;;;;;;;;;;5024238;28;20038;-69
2023/07/29 08:35:16;;;;;;;6.38;2.72;;;;;;;;;;5025553;28;20044;-68
2023/07/29 08:37:42;;;;;;;6.05;2.75;;;;;;;;;;5028554;28;20030;-69
2023/07/29 08:40:09;;;;;;;10.15;3.53;;;;;;;;;;5005091;28;20149;-68
2023/07/29 08:42:36;;;;;;;15.27;4.82;;;;;;;;;;5010226;28;20443;-69
2023/07/29 08:45:07;;;;;;;8.45;4.78;;;;;;;;;;5025407;28;20452;-70
2023/07/29 08:47:33;;;;;;;8.18;3.92;;;;;;;;;;5023500;28;20033;-68
2023/07/29 08:50:01;;;;;;;7.80;3.33;;;;;;;;;;5027520;28;20073;-69
2023/07/29 08:52:29;;;;;;;6.25;3.65;;;;;;;;;;5026560;28;20048;-70
2023/07/29 08:54:56;;;;;;;5.45;2.92;;;;;;;;;;5028461;28;20084;-70
2023/07/29 08:57:22;;;;;;;6.40;3.00;;;;;;;;;;5030609;28;20049;-69
2023/07/29 08:59:49;;;;;;;7.32;3.15;;;;;;;;;;5023941;28;20056;-70
2023/07/29 09:02:15;;;;;;;5.30;2.88;;;;;;;;;;5023343;28;20164;-72
2023/07/29 09:04:41;;;;;;;6.07;3.05;;;;;;;;;;5023926;28;20141;-68
2023/07/29 09:07:08;;;;;;;8.32;3.17;;;;;;;;;;5025064;28;20036;-68
2023/07/29 09:09:34;;;;;;;9.93;3.20;;;;;;;;;;5025206;28;20495;-70
2023/07/29 09:12:00;;;;;;;6.97;3.30;;;;;;;;;;5009373;28;20037;-69
2023/07/29 09:14:27;;;;;;;8.35;3.15;;;;;;;;;;5021220;28;20107;-69
2023/07/29 09:16:54;;;;;;;8.93;3.30;;;;;;;;;;5025308;28;20040;-69
2023/07/29 09:19:20;;;;;;;6.93;3.95;;;;;;;;;;5017430;28;20038;-69
2023/07/29 09:21:47;;;;;;;6.78;3.00;;;;;;;;;;5024007;28;20382;-70
2023/07/29 09:24:17;;;;;;;9.77;3.45;;;;;;;;;;5024258;28;20108;-68
2023/07/29 09:26:49;;;;;;;10.98;3.10;;;;;;;;;;5025014;28;20036;-69
2023/07/29 09:29:15;;;;;;;8.40;3.30;;;;;;;;;;5026855;28;20370;-70
2023/07/29 09:31:41;;;;;;;7.00;3.15;;;;;;;;;;5025067;28;20017;-70
2023/07/29 09:34:08;;;;;;;8.88;3.42;;;;;;;;;;5025155;28;20076;-70
2023/07/29 09:36:35;;;;;;;8.32;4.43;;;;;;;;;;5026962;28;20033;-70
2023/07/29 09:39:03;;;;;;;7.88;3.85;;;;;;;;;;5026566;28;20030;-70
2023/07/29 09:41:33;;;;;;;7.63;3.92;;;;;;;;;;5021940;28;20037;-70
2023/07/29 09:44:01;;;;;;;13.60;4.55;;;;;;;;;;5023493;28;20071;-69
2023/07/29 09:46:33;;;;;;;7.35;3.80;;;;;;;;;;5020997;28;20099;-70
2023/07/29 09:48:59;;;;;;;8.20;4.35;;;;;;;;;;5027809;28;20033;-73
2023/07/29 09:51:25;;;;;;;8.10;3.95;;;;;;;;;;5005276;28;20480;-68
2023/07/29 09:53:52;;;;;;;8.73;4.40;;;;;;;;;;5020462;28;20025;-72
2023/07/29 09:56:18;;;;;;;10.30;3.90;;;;;;;;;;5007493;28;20025;-69
2023/07/29 09:58:45;;;;;;;5.80;3.42;;;;;;;;;;5021778;28;20550;-69
2023/07/29 10:01:11;;;;;;;14.15;3.45;;;;;;;;;;5024689;28;20030;-70
2023/07/29 10:03:38;;;;;;;7.95;3.22;;;;;;;;;;5006380;28;20113;-70
2023/07/29 10:06:04;;;;;;;9.40;3.38;;;;;;;;;;5026068;28;20109;-71
2023/07/29 10:08:40;;;;;;;9.75;3.67;;;;;;;;;;5021690;28;20017;-70
2023/07/29 10:11:07;;;;;;;10.82;3.65;;;;;;;;;;5017679;28;20048;-70
2023/07/29 10:13:34;;;;;;;5.55;3.13;;;;;;;;;;5023568;28;20029;-71
2023/07/29 10:16:03;;;;;;;7.55;3.30;;;;;;;;;;5022841;28;20037;-70
2023/07/29 10:18:30;;;;;;;4.72;3.00;;;;;;;;;;5021707;28;20414;-72
2023/07/29 10:20:57;;;;;;;4.65;3.58;;;;;;;;;;5026182;28;20525;-69
2023/07/29 10:23:25;;;;;;;5.10;3.50;;;;;;;;;;5021649;28;20403;-69
2023/07/29 10:25:55;;;;;;;8.15;3.67;;;;;;;;;;5019964;28;20029;-70
2023/07/29 10:28:26;;;;;;;6.07;3.47;;;;;;;;;;5021016;28;20043;-70
2023/07/29 10:30:52;;;;;;;6.25;3.40;;;;;;;;;;5024679;28;20040;-70
2023/07/29 10:33:19;;;;;;;7.88;3.85;;;;;;;;;;5023018;28;20045;-69
2023/07/29 10:35:45;;;;;;;6.45;4.00;;;;;;;;;;5025781;28;20044;-69
2023/07/29 10:38:11;;;;;;;11.35;4.82;;;;;;;;;;5030340;28;20029;-68
2023/07/29 10:40:45;;;;;;;9.40;4.70;;;;;;;;;;5026921;28;20039;-70
2023/07/29 10:43:12;;;;;;;7.03;5.30;;;;;;;;;;5028485;28;20033;-68
2023/07/29 10:45:39;;;;;;;7.97;6.10;;;;;;;;;;5026952;28;20054;-68
2023/07/29 10:48:11;;;;;;;9.75;5.78;;;;;;;;;;5023207;28;20300;-68
2023/07/29 10:50:38;;;;;;;10.82;5.65;;;;;;;;;;5024598;28;20041;-68
2023/07/29 10:53:04;;;;;;;11.43;6.65;;;;;;;;;;5020611;28;20120;-70
2023/07/29 10:55:33;;;;;;;11.70;6.20;;;;;;;;;;5024877;28;20041;-70
2023/07/29 10:58:13;;;;;;;6.50;5.80;;;;;;;;;;5029890;28;20037;-70
2023/07/29 11:00:42;;;;;;;8.52;5.40;;;;;;;;;;5020419;28;20113;-71
2023/07/29 11:03:08;;;;;;;5.97;5.30;;;;;;;;;;5021027;28;20109;-71
2023/07/29 11:05:44;;;;;;;5.40;4.20;;;;;;;;;;5004506;28;20117;-70
2023/07/29 11:08:17;;;;;;;5.20;3.50;;;;;;;;;;5027982;28;20030;-71
2023/07/29 11:10:44;;;;;;;8.38;3.30;;;;;;;;;;5011411;28;20088;-71
2023/07/29 11:13:12;;;;;;;7.22;2.75;;;;;;;;;;5017646;28;20047;-70
2023/07/29 11:15:39;;;;;;;5.30;3.20;;;;;;;;;;5029469;28;20678;-70
2023/07/29 11:18:08;;;;;;;4.78;2.40;;;;;;;;;;5010747;28;20041;-70
2023/07/29 11:20:34;;;;;;;5.40;3.05;;;;;;;;;;5029424;28;20024;-70
2023/07/29 11:23:01;;;;;;;3.47;2.35;;;;;;;;;;5029709;28;20360;-71
2023/07/29 11:25:28;;;;;;;6.55;3.13;;;;;;;;;;5030042;28;20037;-70
2023/07/29 11:27:56;;;;;;;5.43;2.60;;;;;;;;;;5029732;28;20483;-70
2023/07/29 11:30:27;;;;;;;5.47;2.60;;;;;;;;;;5029705;28;20091;-70
2023/07/29 11:32:54;;;;;;;5.88;2.60;;;;;;;;;;5029814;28;20029;-70
2023/07/29 11:35:20;;;;;;;4.22;1.80;;;;;;;;;;5030039;28;20455;-70
2023/07/29 11:37:48;;;;;;;3.42;1.98;;;;;;;;;;5029992;28;20068;-70
2023/07/29 11:40:23;;;;;;;2.08;1.88;;;;;;;;;;5029904;28;20021;-69
2023/07/29 11:42:50;;;;;;;2.83;1.73;;;;;;;;;;5030207;28;20053;-70
2023/07/29 11:45:17;;;;;;;4.28;1.63;;;;;;;;;;5029891;28;20038;-69
2023/07/29 11:47:43;;;;;;;3.92;1.98;;;;;;;;;;5029681;28;20049;-70
2023/07/29 11:50:10;;;;;;;3.63;2.55;;;;;;;;;;5030450;28;20108;-69
2023/07/29 11:52:37;;;;;;;3.15;1.80;;;;;;;;;;5029904;28;20556;-70
2023/07/29 11:55:04;;;;;;;2.95;1.70;;;;;;;;;;5030088;28;20467;-70
2023/07/29 11:57:31;;;;;;;2.30;1.65;;;;;;;;;;5030059;28;20438;-69
2023/07/29 11:59:57;;;;;;;4.88;1.95;;;;;;;;;;5029916;28;20029;-70
2023/07/29 12:02:25;;;;;;;6.90;2.00;;;;;;;;;;5029984;28;20030;-70
2023/07/29 12:04:52;;;;;;;6.72;1.98;;;;;;;;;;5029831;28;20033;-71
2023/07/29 12:07:18;;;;;;;3.28;1.88;;;;;;;;;;5029421;28;20181;-70
2023/07/29 12:09:45;;;;;;;3.78;1.88;;;;;;;;;;5029353;28;20040;-70
2023/07/29 12:12:11;;;;;;;3.15;1.83;;;;;;;;;;5029641;28;20050;-70
2023/07/29 12:14:38;;;;;;;3.00;1.80;;;;;;;;;;5028804;28;20442;-70
2023/07/29 12:17:05;;;;;;;2.65;1.90;;;;;;;;;;5028608;28;20770;-69
2023/07/29 12:19:38;;;;;;;5.85;1.95;;;;;;;;;;5029768;28;20026;-69
2023/07/29 12:22:05;;;;;;;3.85;2.42;;;;;;;;;;5028841;28;20029;-70
2023/07/29 12:24:31;;;;;;;2.20;1.80;;;;;;;;;;5029179;28;20546;-69
2023/07/29 12:26:58;;;;;;;2.42;1.80;;;;;;;;;;5021390;28;20022;-69
2023/07/29 12:29:24;;;;;;;4.82;2.28;;;;;;;;;;5009213;28;20117;-69
2023/07/29 12:31:58;;;;;;;2.83;1.98;;;;;;;;;;4991722;28;20052;-69
2023/07/29 12:34:25;;;;;;;4.40;2.13;;;;;;;;;;5009113;28;20030;-69
2023/07/29 12:36:53;;;;;;;5.15;2.10;;;;;;;;;;5009393;28;20388;-69
2023/07/29 12:39:19;;;;;;;3.08;2.10;;;;;;;;;;4991820;28;20049;-69
2023/07/29 12:41:45;;;;;;;4.47;2.80;;;;;;;;;;5007793;28;20113;-69
2023/07/29 12:44:11;;;;;;;4.78;2.65;;;;;;;;;;5009312;28;20034;-70
2023/07/29 12:46:38;;;;;;;5.60;2.53;;;;;;;;;;5009010;28;20053;-69
2023/07/29 12:49:04;;;;;;;4.78;2.10;;;;;;;;;;5009566;28;20030;-69
2023/07/29 12:51:30;;;;;;;3.60;3.03;;;;;;;;;;5012494;28;20072;-69
2023/07/29 12:53:56;;;;;;;8.38;2.80;;;;;;;;;;5013016;28;20026;-70
2023/07/29 12:56:22;;;;;;;5.22;2.28;;;;;;;;;;5013054;28;20124;-70
2023/07/29 12:58:48;;;;;;;3.97;2.70;;;;;;;;;;5013360;28;20058;-70
2023/07/29 13:01:18;;;;;;;5.40;2.70;;;;;;;;;;5013075;28;20038;-72
2023/07/29 13:03:44;;;;;;;4.93;2.63;;;;;;;;;;5013482;28;20052;-69
2023/07/29 13:06:10;;;;;;;5.88;2.83;;;;;;;;;;5013207;28;20128;-71
2023/07/29 13:08:37;;;;;;;4.72;2.42;;;;;;;;;;5013184;28;20088;-71
2023/07/29 13:11:03;;;;;;;3.95;2.20;;;;;;;;;;5012509;28;20037;-71
2023/07/29 13:13:29;;;;;;;3.72;2.70;;;;;;;;;;5013043;28;20116;-70
2023/07/29 13:15:56;;;;;;;3.90;2.63;;;;;;;;;;5012880;28;20111;-69
2023/07/29 13:18:22;;;;;;;4.68;2.72;;;;;;;;;;5012613;28;20480;-69
2023/07/29 13:20:48;;;;;;;4.45;3.00;;;;;;;;;;5008532;28;20124;-71
2023/07/29 13:23:16;;;;;;;4.90;2.63;;;;;;;;;;5032235;28;20379;-69
2023/07/29 13:25:42;;;;;;;6.95;3.20;;;;;;;;;;5032020;28;20445;-69
2023/07/29 13:28:13;;;;;;;3.97;2.50;;;;;;;;;;5014139;28;20037;-70
2023/07/29 13:30:39;;;;;;;4.53;2.70;;;;;;;;;;5032163;28;20041;-71
2023/07/29 13:33:05;;;;;;;4.47;2.70;;;;;;;;;;5031628;28;20033;-69
2023/07/29 13:35:31;;;;;;;8.05;3.03;;;;;;;;;;5032166;28;20026;-69
2023/07/29 13:37:57;;;;;;;4.15;2.42;;;;;;;;;;5031355;28;20032;-69
2023/07/29 13:40:23;;;;;;;8.93;3.03;;;;;;;;;;5031330;28;20590;-69
2023/07/29 13:42:50;;;;;;;3.40;2.40;;;;;;;;;;5014177;28;20489;-69
2023/07/29 13:45:16;;;;;;;3.03;2.50;;;;;;;;;;5031783;28;20037;-70
2023/07/29 13:47:42;;;;;;;4.97;2.95;;;;;;;;;;5031716;28;20049;-69
2023/07/29 13:50:08;;;;;;;7.45;3.15;;;;;;;;;;5031711;28;20065;-70
2023/07/29 13:52:36;;;;;;;6.47;2.95;;;;;;;;;;5013764;28;20156;-70
2023/07/29 13:55:03;;;;;;;6.85;2.80;;;;;;;;;;5031318;28;20438;-71
2023/07/29 13:57:29;;;;;;;31.58;2.80;;;;;;;;;;5031410;28;20061;-70
2023/07/29 13:59:55;;;;;;;6.30;2.47;;;;;;;;;;5031520;28;20038;-70
2023/07/29 14:02:22;;;;;;;6.38;2.50;;;;;;;;;;5030384;28;20029;-71
2023/07/29 14:04:48;;;;;;;4.07;2.00;;;;;;;;;;5031838;28;20128;-71
2023/07/29 14:07:14;;;;;;;5.90;1.70;;;;;;;;;;5031213;28;20052;-71
2023/07/29 14:09:42;;;;;;;4.43;2.05;;;;;;;;;;5031515;28;20073;-70
2023/07/29 14:12:12;;;;;;;3.50;1.80;;;;;;;;;;5031952;28;20072;-70
2023/07/29 14:14:38;;;;;;;4.13;2.10;;;;;;;;;;5031690;28;20045;-70
2023/07/29 14:17:05;;;;;;;4.40;1.85;;;;;;;;;;5031395;28;20099;-70
2023/07/29 14:19:34;;;;;;;3.30;1.50;;;;;;;;;;5031242;28;20573;-70
2023/07/29 14:22:00;;;;;;;4.93;1.85;;;;;;;;;;5020492;28;20095;-70
2023/07/29 14:24:26;;;;;;;11.88;1.50;;;;;;;;;;5011756;28;20104;-71
2023/07/29 14:26:52;;;;;;;3.40;1.50;;;;;;;;;;5011700;28;20053;-69
2023/07/29 14:29:18;;;;;;;3.70;1.27;;;;;;;;;;5011840;28;20034;-70
2023/07/29 14:31:44;;;;;;;3.35;1.40;;;;;;;;;;5011785;28;20395;-70
2023/07/29 14:34:10;;;;;;;3.58;1.30;;;;;;;;;;5011400;28;20045;-70